那覇空港の過去48時間の天気

那覇空港 (Naha)

現在時刻: 5/28 13:38 JST (5/28 04:38 UTC) 以下の時間は現地時間です。

過去48時間のMETAR気象情報
時間 風向 風速(m/s) 視程 気温(℃) 湿度(%) 気圧(hPa) 天気現象
28 13:00 北北東 5 10km以上 27 74 1011
28 12:30 6 10km以上 26 79 1011
28 12:00 7 10km以上 26 79 1011
28 11:30 北北西 5 10km以上 27 79 1011
28 11:00 5 10km以上 27 79 1011
28 10:30 4 10km以上 27 74 1011
28 10:00 5 10km以上 26 84 1011
28 09:30 3 10km以上 26 84 1011
28 09:00 4 10km以上 25 83 1011
28 08:30 北北東 4 10km以上 25 89 1011
28 08:00 3 10km以上 25 89 1011
28 07:30 北北東 4 10km以上 25 83 1010
28 07:00 4 10km以上 25 83 1010
28 06:30 北北東 3 10km以上 24 89 1010
28 06:00 北北東 5 10km以上 24 89 1010
28 05:30 北北東 4 10km以上 24 89 1010
28 05:00 北北東 4 10km以上 24 89 1009
28 04:30 4 10km以上 24 94 1009
28 04:00 北北東 3 10km以上 24 89 1009
28 03:30 北北東 4 10km以上 24 89 1009
28 03:00 4 10km以上 24 89 1009
28 02:30 6 10km以上 24 89 1009
28 02:00 北北西 5 10km以上 24 94 1009
28 01:30 北北西 4 10km以上 24 94 1009
28 01:00 北北西 2 10km以上 24 94 1009
28 00:30 北北西 2 10km以上 24 94 1009
28 00:00 北北東 2 10km以上 24 94 1009
27 23:30 北北東 4 10km以上 24 94 1009
27 23:00 北北東 4 10km以上 25 89 1009
27 22:30 北北東 5 10km以上 24 94 1009
27 22:00 6 10km以上 25 94 1009
27 21:30 5 10km以上 25 94 1009
27 21:00 北西 4 10km以上 25 94 1009
27 20:30 西北西 3 10km以上 25 94 1009
27 20:00 西北西 2 10km以上 25 94 1008
27 19:30 西北西 2 10km以上 25 94 1007
27 19:00 不定 1 10km以上 26 89 1007
27 18:30 北西 2 10km以上 26 89 1007
27 18:00 西北西 3 10km以上 26 84 1007
27 17:30 北西 4 10km以上 26 84 1007
27 17:00 北西 4 10km以上 26 84 1007
27 16:30 北西 4 10km以上 26 89 1007
27 16:00 西北西 2 10km以上 26 89 1007 弱い雨
27 15:30 北西 2 10km以上 26 89 1007 弱い雨
27 15:00 北西 3 10km以上 26 89 1007 弱い雨
27 14:30 西北西 4 10km以上 26 89 1007 周辺でしゅう雨
27 14:00 西北西 4 10km以上 26 89 1007 弱い雨
27 13:30 西 5 10km以上 27 84 1007 弱い雨
27 13:00 西 6 10km以上 27 84 1007
27 12:30 西 6 10km以上 28 84 1007
27 12:00 西南西 8 10km以上 28 84 1007
27 11:30 西南西 6 10km以上 27 89 1008
27 11:00 西南西 6 10km以上 27 89 1007
27 10:30 南西 7 10km以上 28 89 1007
27 10:00 南西 7 10km以上 27 89 1007
27 09:30 南西 8 10km以上 27 89 1007 弱い雨
27 09:00 南西 8 10km以上 27 89 1007 弱い雨
27 08:30 南西 7 10km以上 27 89 1007 周辺でしゅう雨
27 08:00 南西 7 10km以上 26 94 1007
27 07:30 南南西 6 10km以上 27 94 1007
27 07:00 南南西 5 10km以上 26 100 1007
27 06:30 南西 5 10km以上 26 100 1007
27 06:00 南南西 4 10km以上 26 100 1006
27 05:30 南南西 6 10km以上 26 94 1006
27 05:00 南南西 5 10km以上 26 94 1006
27 04:30 南南西 5 10km以上 26 94 1006
27 04:00 南南西 5 10km以上 26 94 1006
27 03:30 南南西 5 10km以上 26 94 1006
27 03:00 5 10km以上 26 94 1006 弱い雨
27 02:30 5 10km以上 26 94 1006 弱い雨
27 02:00 5 10km以上 26 94 1007
27 01:30 5 10km以上 26 94 1007
27 01:00 4 10km以上 26 94 1007
27 00:30 4 10km以上 26 94 1007
27 00:00 4 10km以上 26 94 1008
26 23:30 4 10km以上 26 94 1008
26 23:00 5 10km以上 26 94 1008
26 22:30 5 10km以上 26 94 1008
26 22:00 5 10km以上 26 89 1008
26 21:30 南南東 5 10km以上 26 89 1008
26 21:00 南南東 5 10km以上 26 89 1008
26 20:30 南南東 5 10km以上 26 89 1008
26 20:00 南東 4 10km以上 26 89 1008
26 19:30 南南東 4 10km以上 27 84 1008
26 19:00 南南東 5 10km以上 27 84 1007
26 18:30 南東 5 10km以上 28 74 1007
26 18:00 南南東 4 10km以上 28 74 1007
26 17:30 南南東 5 10km以上 28 74 1007
26 17:00 南南西 4 10km以上 28 79 1007
26 16:30 4 10km以上 28 74 1007
26 16:00 南南西 4 10km以上 28 74 1008
26 15:30 4 10km以上 28 79 1008
26 15:00 4 10km以上 28 74 1008
26 14:30 5 10km以上 29 74 1008
26 14:00 5 10km以上 28 74 1008
ROAH 280400Z 02010KT 9999 FEW015 SCT050 27/22 Q1011
ROAH 280330Z 36012KT 9999 FEW015 BKN050 26/22 Q1011
ROAH 280300Z 35013KT 9999 FEW015 BKN050 26/22 Q1011
ROAH 280230Z 34009KT 9999 FEW015 BKN060 27/23 Q1011
ROAH 280200Z 35010KT 9999 FEW015 27/23 Q1011
ROAH 280130Z 01008KT 9999 FEW015 BKN060 27/22 Q1011
ROAH 280100Z 35010KT 9999 FEW014 BKN060 26/23 Q1011
ROAH 280030Z 01006KT 9999 FEW012 BKN070 26/23 Q1011
ROAH 280000Z 35007KT 320V030 9999 FEW010 BKN070 25/22 Q1011
ROAH 272330Z 02007KT 9999 FEW010 SCT050 BKN070 25/23 Q1011
ROAH 272300Z 01006KT 9999 FEW010 BKN070 25/23 Q1011
ROAH 272230Z 03008KT 9999 FEW010 SCT090 25/22 Q1010
ROAH 272200Z 01008KT 9999 FEW010 SCT090 BKN/// 25/22 Q1010
ROAH 272130Z 03006KT 9999 FEW008 BKN/// 24/22 Q1010
ROAH 272100Z 02009KT 9999 FEW008 BKN/// 24/22 Q1010
ROAH 272030Z 02008KT 9999 FEW007 24/22 Q1010
ROAH 272000Z 02008KT 9999 FEW007 SCT080 24/22 Q1009
ROAH 271930Z 01007KT 9999 FEW007 24/23 Q1009
ROAH 271900Z 02006KT 9999 FEW007 SCT190 24/22 Q1009
ROAH 271830Z 02008KT 9999 FEW007 24/22 Q1009
ROAH 271800Z 01008KT 9999 FEW007 SCT045 BKN190 24/22 Q1009
ROAH 271730Z 36011KT 9999 FEW007 SCT011 BKN045 24/22 Q1009
ROAH 271700Z 34009KT 9999 FEW007 BKN040 24/23 Q1009
ROAH 271630Z 33008KT 9999 FEW007 SCT170 24/23 Q1009
ROAH 271600Z 34004KT 9999 FEW007 BKN170 24/23 Q1009
ROAH 271530Z 34004KT 9999 FEW007 BKN170 24/23 Q1009
ROAH 271500Z 02003KT 9999 FEW007 SCT080 BKN170 24/23 Q1009
ROAH 271430Z 02007KT 9999 FEW007 BKN080 24/23 Q1009
ROAH 271400Z 02007KT 9999 FEW007 BKN080 25/23 Q1009
ROAH 271330Z 02010KT 9999 FEW005 SCT009 BKN110 24/23 Q1009
ROAH 271300Z 36012KT 9999 FEW005 SCT010 BKN015 25/24 Q1009
ROAH 271230Z 36010KT 9999 FEW005 SCT020 BKN140 25/24 Q1009
ROAH 271200Z 32007KT 9999 FEW008 BKN020 BKN070 25/24 Q1009
ROAH 271130Z 30006KT 9999 SCT012 BKN050 25/24 Q1009
ROAH 271100Z 30004KT 9999 FEW010 BKN050 25/24 Q1008
ROAH 271030Z 30003KT 9999 FEW010 BKN050 BKN120 25/24 Q1007
ROAH 271000Z VRB02KT 9999 FEW010 SCT030 BKN050 26/24 Q1007
ROAH 270930Z 31004KT 9999 FEW010 BKN030 BKN050 26/24 Q1007
ROAH 270900Z 30006KT 9999 FEW012 BKN030 26/23 Q1007
ROAH 270830Z 31008KT 9999 FEW012 BKN040 BKN070 26/23 Q1007
ROAH 270800Z 31008KT 9999 FEW012 SCT050 BKN070 26/23 Q1007
ROAH 270730Z 31007KT 9999 FEW012 SCT050 BKN070 26/24 Q1007
ROAH 270700Z 29004KT 260V330 9999 -RA FEW012 SCT045 BKN180 26/24 Q1007
ROAH 270630Z 31004KT 280V340 9999 -RA FEW012 SCT025 BKN180 26/24 Q1007
ROAH 270600Z 31005KT 9999 -RA FEW015 SCT070 BKN150 26/24 Q1007
ROAH 270530Z 30008KT 9999 VCSH FEW009 BKN011 26/24 Q1007
ROAH 270500Z 29008KT 250V310 9999 -RA BKN011 BKN015 26/24 Q1007
ROAH 270430Z 28010KT 9999 -RA BKN016 27/24 Q1007
ROAH 270400Z 28011KT 9999 FEW012 BKN015 27/24 Q1007
ROAH 270330Z 27012KT 9999 FEW012 BKN020 BKN070 28/25 Q1007
ROAH 270300Z 25016KT 9999 FEW012 BKN070 28/25 Q1007
ROAH 270230Z 24012KT 9999 FEW008 BKN012 27/25 Q1008
ROAH 270200Z 24012KT 9999 FEW008 BKN012 27/25 Q1007
ROAH 270130Z 23013KT 9999 FEW010 SCT130 BKN/// 28/26 Q1007
ROAH 270100Z 23013KT 9999 FEW007 BKN140 27/25 Q1007
ROAH 270030Z 23015KT 9999 -RA FEW007 SCT030 BKN090 27/25 Q1007
ROAH 270000Z 23015KT 9999 -RA FEW006 SCT009 BKN035 27/25 Q1007
ROAH 262330Z 23014KT 9999 VCSH FEW006 SCT009 BKN035 27/25 Q1007
ROAH 262300Z 22013KT 9999 SCT007 SCT009 BKN036 26/25 Q1007
ROAH 262230Z 21011KT 9999 FEW007 SCT043 BKN100 27/26 Q1007
ROAH 262200Z 21009KT 9999 FEW003 SCT038 BKN050 26/26 Q1007
ROAH 262130Z 22009KT 9999 FEW006 SCT011 BKN040 26/26 Q1007
ROAH 262100Z 20008KT 9999 FEW003 SCT042 BKN200 26/26 Q1006
ROAH 262030Z 20011KT 9999 FEW003 SCT045 BKN170 26/25 Q1006
ROAH 262000Z 20010KT 9999 FEW004 BKN180 26/25 Q1006
ROAH 261930Z 21009KT 9999 FEW007 BKN180 26/25 Q1006
ROAH 261900Z 20010KT 9999 FEW003 SCT047 BKN170 26/25 Q1006
ROAH 261830Z 20010KT 9999 FEW007 BKN190 26/25 Q1006
ROAH 261800Z 19010KT 9999 -RA FEW007 BKN230 26/25 Q1006
ROAH 261730Z 19009KT 9999 -RA FEW007 BKN160 26/25 Q1006
ROAH 261700Z 19010KT 9999 FEW007 BKN160 26/25 Q1007
ROAH 261630Z 18009KT 9999 FEW007 SCT023 BKN160 26/25 Q1007
ROAH 261600Z 18007KT 9999 FEW007 SCT013 BKN027 26/25 Q1007
ROAH 261530Z 18008KT 9999 FEW007 SCT010 BKN027 26/25 Q1007
ROAH 261500Z 18008KT 9999 FEW007 SCT010 BKN025 26/25 Q1008
ROAH 261430Z 17008KT 9999 SCT008 SCT010 BKN025 26/25 Q1008
ROAH 261400Z 17010KT 9999 FEW010 SCT027 BKN190 26/25 Q1008
ROAH 261330Z 17010KT 9999 FEW010 BKN190 26/25 Q1008
ROAH 261300Z 17009KT 9999 FEW010 BKN180 26/24 Q1008
ROAH 261230Z 16010KT 9999 FEW013 SCT170 26/24 Q1008
ROAH 261200Z 16010KT 9999 FEW013 26/24 Q1008
ROAH 261130Z 15010KT 9999 FEW013 26/24 Q1008
ROAH 261100Z 14007KT 9999 FEW014 SCT/// 26/24 Q1008
ROAH 261030Z 15007KT 9999 FEW016 SCT/// 27/24 Q1008
ROAH 261000Z 15010KT 9999 FEW016 SCT/// 27/24 Q1007
ROAH 260930Z 14009KT 9999 SCT019 28/23 Q1007
ROAH 260900Z 16008KT 9999 FEW019 SCT170 28/23 Q1007
ROAH 260830Z 16010KT 9999 FEW017 SCT023 BKN170 28/23 Q1007
ROAH 260800Z 20008KT 160V220 9999 FEW021 SCT180 BKN/// 28/24 Q1007
ROAH 260730Z 18008KT 9999 FEW020 BKN200 BKN/// 28/23 Q1007
ROAH 260700Z 20008KT 9999 FEW020 SCT200 BKN/// 28/23 Q1008
ROAH 260630Z 18008KT 9999 FEW020 SCT210 BKN/// 28/24 Q1008
ROAH 260600Z 19008KT 9999 FEW020 SCT160 BKN/// 28/23 Q1008
ROAH 260530Z 19009KT 9999 FEW020 SCT160 BKN/// 29/24 Q1008
ROAH 260500Z 19009KT 9999 FEW020 SCT/// 28/23 Q1008